地図

経路データ

SID SEASON NUMBER BASIN SUBBASIN NAME ISO_TIME NATURE LAT LON WMO_WIND WMO_PRES WMO_AGENCY TRACK_TYPE DIST2LAND LANDFALL IFLAG USA_AGENCY USA_ATCF_ID USA_LAT USA_LON USA_RECORD USA_STATUS USA_WIND USA_PRES USA_SSHS USA_R34_NE USA_R34_SE USA_R34_SW USA_R34_NW USA_R50_NE USA_R50_SE USA_R50_SW USA_R50_NW USA_R64_NE USA_R64_SE USA_R64_SW USA_R64_NW USA_POCI USA_ROCI USA_RMW USA_EYE TOKYO_LAT TOKYO_LON TOKYO_GRADE TOKYO_WIND TOKYO_PRES TOKYO_R50_DIR TOKYO_R50_LONG TOKYO_R50_SHORT TOKYO_R30_DIR TOKYO_R30_LONG TOKYO_R30_SHORT TOKYO_LAND CMA_LAT CMA_LON CMA_CAT CMA_WIND CMA_PRES HKO_LAT HKO_LON HKO_CAT HKO_WIND HKO_PRES NEWDELHI_LAT NEWDELHI_LON NEWDELHI_GRADE NEWDELHI_WIND NEWDELHI_PRES NEWDELHI_CI NEWDELHI_DP NEWDELHI_POCI REUNION_LAT REUNION_LON REUNION_TYPE REUNION_WIND REUNION_PRES REUNION_TNUM REUNION_CI REUNION_RMW REUNION_R34_NE REUNION_R34_SE REUNION_R34_SW REUNION_R34_NW REUNION_R50_NE REUNION_R50_SE REUNION_R50_SW REUNION_R50_NW REUNION_R64_NE REUNION_R64_SE REUNION_R64_SW REUNION_R64_NW BOM_LAT BOM_LON BOM_TYPE BOM_WIND BOM_PRES BOM_TNUM BOM_CI BOM_RMW BOM_R34_NE BOM_R34_SE BOM_R34_SW BOM_R34_NW BOM_R50_NE BOM_R50_SE BOM_R50_SW BOM_R50_NW BOM_R64_NE BOM_R64_SE BOM_R64_SW BOM_R64_NW BOM_ROCI BOM_POCI BOM_EYE BOM_POS_METHOD BOM_PRES_METHOD NADI_LAT NADI_LON NADI_CAT NADI_WIND NADI_PRES WELLINGTON_LAT WELLINGTON_LON WELLINGTON_WIND WELLINGTON_PRES DS824_LAT DS824_LON DS824_STAGE DS824_WIND DS824_PRES TD9636_LAT TD9636_LON TD9636_STAGE TD9636_WIND TD9636_PRES TD9635_LAT TD9635_LON TD9635_WIND TD9635_PRES TD9635_ROCI NEUMANN_LAT NEUMANN_LON NEUMANN_CLASS NEUMANN_WIND NEUMANN_PRES MLC_LAT MLC_LON MLC_CLASS MLC_WIND MLC_PRES USA_GUST BOM_GUST BOM_GUST_PER REUNION_GUST REUNION_GUST_PER USA_SEAHGT USA_SEARAD_NE USA_SEARAD_SE USA_SEARAD_SW USA_SEARAD_NW STORM_SPEED STORM_DIR
1870280N10331 1870 24 NA NA NOT_NAMED 1870-10-07 00:00:00 TS 10.0000 -29.0000 main 1355 1355 _____________O -1 10.0000 -29.0000 TD 30 31 289
1870280N10331 1870 24 NA NA NOT_NAMED 1870-10-07 03:00:00 TS 10.5114 -30.4989 main 1487 1487 _____________P -1 10.5114 -30.4989 TD 35 31 289
1870280N10331 1870 24 NA NA NOT_NAMED 1870-10-07 06:00:00 TS 11.0000 -32.0000 main 1626 1626 _____________O -1 11.0000 -32.0000 TS 40 31 288
1870280N10331 1870 24 NA NA NOT_NAMED 1870-10-07 09:00:00 TS 11.4693 -33.5011 main 1757 1744 _____________P -1 11.4693 -33.5011 TS 45 31 289
1870280N10331 1870 24 NA NA NOT_NAMED 1870-10-07 12:00:00 TS 12.0000 -35.0000 main 1751 1748 O____________O hurdat_atl AL071870 12.0000 -35.0000 HU 70 1 12.0000 -35.0000 TS 50 32 292
1870280N10331 1870 24 NA NA NOT_NAMED 1870-10-07 15:00:00 TS 12.6692 -36.5004 main 1785 1781 _____________P AL071870 HU -1 12.6692 -36.5004 TS 50 33 296
1870280N10331 1870 24 NA NA NOT_NAMED 1870-10-07 18:00:00 TS 13.4000 -38.0000 main 1781 1705 _____________O AL071870 HU -1 13.4000 -38.0000 TS 50 33 297
1870280N10331 1870 24 NA NA NOT_NAMED 1870-10-07 21:00:00 TS 14.1440 -39.4999 main 1697 1637 _____________P AL071870 HU -1 14.1440 -39.4999 TS 50 32 296
1870280N10331 1870 24 NA NA NOT_NAMED 1870-10-08 00:00:00 TS 14.8000 -41.0000 main 1630 1562 _____________O AL071870 HU -1 14.8000 -41.0000 TS 50 31 291
1870280N10331 1870 24 NA NA NOT_NAMED 1870-10-08 03:00:00 TS 15.2365 -42.5016 main 1555 1502 _____________P AL071870 HU -1 15.2365 -42.5016 TS 50 30 285
1870280N10331 1870 24 NA NA NOT_NAMED 1870-10-08 06:00:00 TS 15.6000 -44.0000 main 1496 1421 _____________O AL071870 HU -1 15.6000 -44.0000 TS 50 31 284
1870280N10331 1870 24 NA NA NOT_NAMED 1870-10-08 09:00:00 TS 15.9688 -45.6428 main 1430 1399 _____________P AL071870 HU -1 15.9688 -45.6428 TS 50 30 287
1870280N10331 1870 24 NA NA NOT_NAMED 1870-10-08 12:00:00 TS 16.5000 -47.0000 main 1404 1399 _____________O AL071870 HU -1 16.5000 -47.0000 TS 50 24 305
1870280N10331 1870 24 NA NA NOT_NAMED 1870-10-08 15:00:00 TS 17.3731 -47.7010 main 1464 1464 _____________P AL071870 HU -1 17.3731 -47.7010 TS 50 22 331
1870280N10331 1870 24 NA NA NOT_NAMED 1870-10-08 18:00:00 TS 18.4000 -48.1000 main 1548 1548 _____________O AL071870 HU -1 18.4000 -48.1000 TS 50 22 337
1870280N10331 1870 24 NA NA NOT_NAMED 1870-10-08 21:00:00 TS 19.3497 -48.6008 main 1618 1618 _____________P AL071870 HU -1 19.3497 -48.6008 TS 50 21 334
1870280N10331 1870 24 NA NA NOT_NAMED 1870-10-09 00:00:00 TS 20.3000 -49.1000 main 1666 1665 _____________O AL071870 HU -1 20.3000 -49.1000 TS 50 22 333
1870280N10331 1870 24 NA NA NOT_NAMED 1870-10-09 03:00:00 TS 21.2575 -49.6503 main 1691 1657 _____________P AL071870 HU -1 21.2575 -49.6503 TS 52 22 332
1870280N10331 1870 24 NA NA NOT_NAMED 1870-10-09 06:00:00 TS 22.2000 -50.2000 main 1660 1621 _____________O AL071870 HU -1 22.2000 -50.2000 TS 55 21 330
1870280N10331 1870 24 NA NA NOT_NAMED 1870-10-09 09:00:00 TS 23.0627 -50.7819 main 1624 1612 _____________P AL071870 HU -1 23.0627 -50.7819 TS 57 20 333
1870280N10331 1870 24 NA NA NOT_NAMED 1870-10-09 12:00:00 TS 24.0000 -51.2000 main 1617 1615 _____________O AL071870 HU -1 24.0000 -51.2000 TS 60 22 346
1870280N10331 1870 24 NA NA NOT_NAMED 1870-10-09 15:00:00 TS 25.1545 -51.3493 main 1658 1658 _____________P AL071870 HU -1 25.1545 -51.3493 TS 62 24 1
1870280N10331 1870 24 NA NA NOT_NAMED 1870-10-09 18:00:00 TS 26.4000 -51.2000 main 1727 1727 _____________O AL071870 HU -1 26.4000 -51.2000 HU 65 25 11
1870280N10331 1870 24 NA NA NOT_NAMED 1870-10-09 21:00:00 TS 27.5999 -50.8124 main 1827 1820 _____________P AL071870 HU -1 27.5999 -50.8124 HU 65 42 11
1870280N10331 1870 24 NA NA NOT_NAMED 1870-10-10 00:00:00 TS 30.5333 -50.3000 70 atcf main 1809 1642 O____________O hurdat_atl AL081870 34.0000 -50.5000 HU 70 1 28.8000 -50.2000 HU 65 47 14
1870280N10331 1870 24 NA NA NOT_NAMED 1870-10-10 03:00:00 TS 32.1210 -49.5417 main 1644 1547 P____________P AL081870 34.2523 -49.6644 HU 70 1 30.0078 -49.4799 HU 65 30 27
1870280N10331 1870 24 NA NA NOT_NAMED 1870-10-10 06:00:00 TS 33.1800 -48.7000 70 atcf main 1538 1471 O____________O hurdat_atl AL081870 34.5000 -48.7000 HU 70 1 31.2000 -48.7000 HU 65 23 36
1870280N10331 1870 24 NA NA NOT_NAMED 1870-10-10 09:00:00 TS 34.0164 -47.8920 main 1471 1432 P____________P AL081870 34.8256 -47.7662 HU 70 1 32.3980 -48.1436 HU 65 21 46
1870280N10331 1870 24 NA NA NOT_NAMED 1870-10-10 12:00:00 TS 34.6333 -46.9000 70 atcf main 1435 1416 O____________O hurdat_atl AL081870 35.2000 -46.7000 HU 70 1 33.5000 -47.3000 HU 65 23 59
1870280N10331 1870 24 NA NA NOT_NAMED 1870-10-10 15:00:00 TS 35.1859 -45.5276 main 1421 1418 P____________P AL081870 35.5769 -45.4234 HU 70 1 34.4040 -45.7362 HU 65 27 66
1870280N10331 1870 24 NA NA NOT_NAMED 1870-10-10 18:00:00 TS 35.7333 -43.9333 70 atcf main 1437 1431 O____________O hurdat_atl AL081870 36.0000 -44.0000 HU 70 1 35.2000 -43.8000 HU 65 28 66
1870280N10331 1870 24 NA NA NOT_NAMED 1870-10-10 21:00:00 TS 36.3228 -42.3506 main 1452 1448 P____________P AL081870 36.4809 -42.5949 HU 70 1 36.0065 -41.8619 HU 65 30 66
1870280N10331 1870 24 NA NA NOT_NAMED 1870-10-11 00:00:00 TS 36.9200 -40.5600 70 atcf main 1496 1493 O____________O hurdat_atl AL081870 37.0000 -41.0000 HU 70 1 36.8000 -39.9000 HU 65 33 68
1870280N10331 1870 24 NA NA NOT_NAMED 1870-10-11 03:00:00 TS 37.5553 -38.5647 main 1558 1558 P____________P AL081870 37.5143 -39.0988 HU 70 1 37.5964 -38.0307 HU 65 35 67
1870280N10331 1870 24 NA NA NOT_NAMED 1870-10-11 06:00:00 TS 38.2667 -36.4667 70 atcf main 1640 1640 O____________O hurdat_atl AL081870 38.0000 -37.0000 HU 70 1 38.4000 -36.2000 HU 65 37 64
1870280N10331 1870 24 NA NA NOT_NAMED 1870-10-11 09:00:00 TS 39.2002 -34.2738 main 1728 1728 _____________P AL081870 HU -1 39.2002 -34.2738 HU 65 35 61
1870280N10331 1870 24 NA NA NOT_NAMED 1870-10-11 12:00:00 TS 40.0000 -32.5000 main 1804 1804 _____________O -1 40.0000 -32.5000 HU 65 29 56
1870280N10331 1870 24 NA NA NOT_NAMED 1870-10-11 15:00:00 TS 40.7926 -31.1414 main 1809 1691 _____________P -1 40.7926 -31.1414 HU 62 26 52
1870280N10331 1870 24 NA NA NOT_NAMED 1870-10-11 18:00:00 ET 41.6000 -29.8000 main 1683 1537 _____________O -1 41.6000 -29.8000 EX 60 28 55
1870280N10331 1870 24 NA NA NOT_NAMED 1870-10-11 21:00:00 ET 42.4105 -28.0885 main 1529 1365 _____________P -1 42.4105 -28.0885 EX 60 32 60
1870280N10331 1870 24 NA NA NOT_NAMED 1870-10-12 00:00:00 ET 43.2000 -26.1000 main 1356 _____________O -1 43.2000 -26.1000 EX 60 33 61

IBTrACS Databaseについて

本データベースは、米国NOAAが公開する1842年以降の世界の熱帯低気圧のベストトラックデータアーカイブInternational Best Track Archive for Climate Stewardship (IBTrACS)を、ウェブで閲覧しやすい形式に変換したものです。

最終更新日:2021-12-03